Time;durP1;ratioP1;P1;durP2;ratioP2;P2;SDS_P1;SDS_P2;PMS_P1;PMS_P2;Temp;Humidity;BMP_temperature;BMP_pressure;BME280_temperature;BME280_humidity;BME280_pressure;Samples;Min_cycle;Max_cycle;Signal;HPM_P1;HPM_P2
2023/11/11 00:02:33;;;;;;;2.70;0.70;;;;;;;9.73;72.26;98503.31;10324815;28;20074;-61
2023/11/11 00:07:35;;;;;;;3.25;0.40;;;;;;;9.76;72.38;98505.56;10310993;28;20046;-61
2023/11/11 00:12:36;;;;;;;2.78;0.35;;;;;;;9.70;72.68;98498.38;10323803;28;20046;-61
2023/11/11 00:17:38;;;;;;;3.90;0.50;;;;;;;9.61;72.79;98491.63;10308851;28;20045;-61
2023/11/11 00:22:43;;;;;;;3.65;0.35;;;;;;;9.64;72.88;98488.53;10325211;28;20386;-61
2023/11/11 00:27:44;;;;;;;1.75;0.40;;;;;;;9.61;72.94;98480.88;10325665;28;20082;-61
2023/11/11 00:32:50;;;;;;;0.80;0.50;;;;;;;9.70;73.07;98482.28;10326055;28;20066;-60
2023/11/11 00:37:53;;;;;;;3.58;0.50;;;;;;;9.71;73.11;98473.19;10324388;28;20053;-60
2023/11/11 00:42:55;;;;;;;3.53;0.40;;;;;;;9.67;73.70;98480.03;10322798;28;20080;-62
2023/11/11 00:47:57;;;;;;;3.33;0.43;;;;;;;9.56;74.18;98481.53;10328102;28;20051;-62
2023/11/11 00:52:59;;;;;;;3.78;0.32;;;;;;;9.60;73.92;98484.63;10320902;28;20502;-61
2023/11/11 00:58:00;;;;;;;3.60;0.40;;;;;;;9.63;74.40;98478.81;10325271;28;20042;-61
2023/11/11 01:03:02;;;;;;;2.78;0.40;;;;;;;9.73;73.94;98482.69;10319662;28;20065;-61
2023/11/11 01:08:04;;;;;;;3.97;0.35;;;;;;;9.70;74.10;98490.34;10302129;28;20066;-61
2023/11/11 01:13:06;;;;;;;3.60;0.38;;;;;;;9.70;74.72;98493.00;10320400;28;20051;-62
2023/11/11 01:18:07;;;;;;;0.70;0.20;;;;;;;9.68;74.51;98482.50;10307862;28;20485;-61
2023/11/11 01:23:09;;;;;;;4.22;0.40;;;;;;;9.63;74.53;98495.72;10317790;28;20129;-61
2023/11/11 01:28:11;;;;;;;2.78;0.30;;;;;;;9.53;74.89;98492.69;10322347;28;20129;-63
2023/11/11 01:33:12;;;;;;;3.53;0.40;;;;;;;9.43;75.33;98495.84;10322723;28;20038;-63
2023/11/11 01:38:14;;;;;;;0.90;0.30;;;;;;;9.45;75.25;98496.44;10320102;28;20450;-64
2023/11/11 01:43:16;;;;;;;1.63;0.50;;;;;;;9.35;75.96;98508.69;10319482;28;20502;-65
2023/11/11 01:48:17;;;;;;;4.97;0.30;;;;;;;9.11;76.67;98514.53;10315605;28;20058;-65
2023/11/11 01:53:19;;;;;;;3.15;0.50;;;;;;;9.12;76.87;98520.72;10325300;28;20068;-66
2023/11/11 01:58:21;;;;;;;2.45;0.60;;;;;;;9.11;77.06;98529.81;10322631;28;20065;-65
2023/11/11 02:03:23;;;;;;;2.50;0.60;;;;;;;8.81;78.11;98540.22;10326323;28;20503;-65
2023/11/11 02:08:30;;;;;;;2.05;0.10;;;;;;;8.20;79.08;98543.94;10315166;28;20356;-62
2023/11/11 02:13:35;;;;;;;0.00;0.00;;;;;;;7.82;78.96;98531.13;10319588;28;20038;-62
2023/11/11 02:18:37;;;;;;;0.00;0.00;;;;;;;7.58;78.73;98532.50;10320542;28;20121;-62
2023/11/11 02:23:39;;;;;;;0.25;0.00;;;;;;;7.55;78.24;98542.59;10319248;28;20496;-62
2023/11/11 02:28:40;;;;;;;0.00;0.00;;;;;;;7.44;78.54;98566.41;10316048;28;20416;-62
2023/11/11 02:33:43;;;;;;;0.00;0.00;;;;;;;7.43;78.34;98578.13;10322787;28;20773;-61
2023/11/11 02:38:45;;;;;;;0.20;0.00;;;;;;;7.51;77.68;98596.66;10302133;28;20050;-62
2023/11/11 02:43:47;;;;;;;0.05;0.00;;;;;;;7.47;78.00;98620.28;10313948;28;20041;-62
2023/11/11 02:48:48;;;;;;;1.60;0.00;;;;;;;7.47;77.69;98625.63;10318214;28;20497;-64
2023/11/11 02:53:50;;;;;;;0.00;0.00;;;;;;;7.26;77.99;98642.59;10326345;28;20070;-65
2023/11/11 02:58:51;;;;;;;0.10;0.00;;;;;;;7.08;78.28;98675.16;10324114;28;20061;-64
2023/11/11 03:03:53;;;;;;;1.65;0.03;;;;;;;7.15;78.01;98691.25;10307091;28;20043;-64
2023/11/11 03:08:54;;;;;;;0.00;0.00;;;;;;;7.21;78.27;98700.31;10320247;28;20049;-64
2023/11/11 03:13:56;;;;;;;4.22;0.00;;;;;;;7.30;77.64;98715.19;10318076;28;20131;-62
2023/11/11 03:18:57;;;;;;;0.15;0.00;;;;;;;7.58;77.26;98715.13;10323900;28;20493;-62
2023/11/11 03:23:59;;;;;;;1.15;0.00;;;;;;;7.68;77.54;98738.84;10325798;28;20050;-62
2023/11/11 03:29:01;;;;;;;1.88;0.00;;;;;;;7.64;77.64;98745.63;10315097;28;20056;-61
2023/11/11 03:34:02;;;;;;;0.00;0.00;;;;;;;7.68;77.54;98757.56;10341604;28;20061;-61
2023/11/11 03:39:04;;;;;;;0.10;0.00;;;;;;;7.79;77.54;98764.25;10341303;28;20049;-61
2023/11/11 03:44:05;;;;;;;0.30;0.10;;;;;;;7.79;77.67;98770.41;10336099;28;20049;-61
2023/11/11 03:49:07;;;;;;;0.30;0.10;;;;;;;7.86;77.77;98773.09;10333605;28;20058;-61
2023/11/11 03:54:08;;;;;;;0.52;0.10;;;;;;;7.99;77.70;98791.91;10331460;28;20101;-61
2023/11/11 03:59:10;;;;;;;0.35;0.10;;;;;;;8.10;76.77;98787.88;10335064;28;20531;-60
2023/11/11 04:04:12;;;;;;;0.30;0.10;;;;;;;8.09;76.99;98795.03;10328793;28;20054;-60
2023/11/11 04:09:14;;;;;;;0.10;0.10;;;;;;;8.10;77.45;98815.44;10322529;28;20056;-62
2023/11/11 04:14:15;;;;;;;0.30;0.10;;;;;;;8.11;77.45;98818.94;10325590;28;20135;-60
2023/11/11 04:19:17;;;;;;;0.15;0.10;;;;;;;8.20;77.10;98833.00;10327594;28;20049;-59
2023/11/11 04:24:19;;;;;;;0.88;0.10;;;;;;;8.17;77.11;98841.41;10325286;28;20050;-59
2023/11/11 04:29:20;;;;;;;0.30;0.20;;;;;;;8.25;77.13;98843.91;10292541;28;20145;-59
2023/11/11 04:34:22;;;;;;;2.60;0.20;;;;;;;8.17;77.49;98860.97;10325031;28;20050;-59
2023/11/11 04:39:23;;;;;;;0.20;0.20;;;;;;;8.14;77.46;98862.19;10323664;28;20461;-59
2023/11/11 04:44:25;;;;;;;0.30;0.30;;;;;;;8.17;77.11;98870.84;10326233;28;20886;-59
2023/11/11 04:49:26;;;;;;;2.25;0.30;;;;;;;8.20;76.55;98873.97;10322770;28;20054;-60
2023/11/11 04:54:28;;;;;;;0.85;0.40;;;;;;;8.16;77.06;98891.44;10324542;28;20058;-60
2023/11/11 04:59:29;;;;;;;1.38;0.40;;;;;;;8.21;76.79;98904.22;10320608;28;20042;-59
2023/11/11 05:04:31;;;;;;;0.77;0.40;;;;;;;8.25;76.88;98897.47;10321346;28;20054;-59
2023/11/11 05:09:33;;;;;;;1.80;0.65;;;;;;;8.24;76.92;98902.00;10325655;28;20529;-59
2023/11/11 05:14:34;;;;;;;1.15;0.73;;;;;;;8.14;76.95;98909.56;10321363;28;20046;-59
2023/11/11 05:19:36;;;;;;;2.85;1.05;;;;;;;8.17;77.27;98914.50;10318505;28;20042;-59
2023/11/11 05:24:37;;;;;;;2.70;1.05;;;;;;;8.28;76.92;98943.41;10324182;28;20054;-59
2023/11/11 05:29:39;;;;;;;2.33;0.85;;;;;;;8.32;77.00;98949.19;10323974;28;20562;-59
2023/11/11 05:34:44;;;;;;;3.90;0.80;;;;;;;8.36;76.86;98960.34;10324318;28;20046;-59
2023/11/11 05:39:46;;;;;;;0.73;0.32;;;;;;;8.38;76.62;98961.81;10315927;28;20082;-60
2023/11/11 05:44:47;;;;;;;4.32;0.30;;;;;;;8.37;76.64;98984.22;10322644;28;20448;-59
2023/11/11 05:49:49;;;;;;;3.03;0.40;;;;;;;8.42;76.54;98991.72;10301188;28;20038;-58
2023/11/11 05:54:50;;;;;;;1.88;0.60;;;;;;;8.56;76.15;98998.00;10323675;28;20576;-59
2023/11/11 05:59:52;;;;;;;1.10;0.40;;;;;;;8.57;75.84;99010.34;10323774;28;20693;-59
2023/11/11 06:04:54;;;;;;;1.83;0.40;;;;;;;8.66;76.06;99019.91;10326208;28;20156;-59
2023/11/11 06:09:56;;;;;;;2.85;0.45;;;;;;;8.75;75.82;99024.09;10321851;28;20050;-58
2023/11/11 06:14:57;;;;;;;1.98;0.93;;;;;;;8.81;75.77;99036.69;10318804;28;20049;-58
2023/11/11 06:19:59;;;;;;;1.58;0.47;;;;;;;8.78;76.10;99050.47;10315308;28;20050;-59
2023/11/11 06:25:01;;;;;;;1.25;0.38;;;;;;;8.90;75.69;99054.25;10316783;28;20070;-59
2023/11/11 06:30:08;;;;;;;2.97;1.02;;;;;;;8.89;75.93;99057.97;10319546;28;20046;-68
2023/11/11 06:35:12;;;;;;;1.53;0.30;;;;;;;9.00;75.53;99069.97;10275577;28;1022631;-68
2023/11/11 06:40:13;;;;;;;0.90;0.28;;;;;;;8.98;75.44;99089.97;10320215;28;20138;-68
2023/11/11 06:45:14;;;;;;;0.52;0.25;;;;;;;9.02;75.49;99101.94;10299497;28;20038;-68
2023/11/11 06:50:19;;;;;;;2.50;0.20;;;;;;;9.00;75.51;99104.81;10326906;28;20124;-69
2023/11/11 06:55:21;;;;;;;0.20;0.15;;;;;;;9.00;75.59;99123.56;10304504;28;20050;-68
2023/11/11 07:00:22;;;;;;;1.27;0.20;;;;;;;8.99;75.31;99118.44;10285099;28;20056;-69
2023/11/11 07:05:27;;;;;;;0.63;0.30;;;;;;;9.01;74.88;99119.06;10327650;28;20129;-68
2023/11/11 07:10:33;;;;;;;1.15;0.30;;;;;;;8.95;75.08;99130.56;10336177;28;20404;-68
2023/11/11 07:15:36;;;;;;;0.93;0.60;;;;;;;8.96;74.75;99133.03;10328089;28;20539;-67
2023/11/11 07:20:39;;;;;;;1.77;0.30;;;;;;;9.03;74.55;99152.69;10325854;28;20046;-68
2023/11/11 07:25:41;;;;;;;2.05;0.20;;;;;;;9.04;74.28;99151.63;10332630;28;20485;-68
2023/11/11 07:30:42;;;;;;;0.95;0.20;;;;;;;9.02;73.52;99169.78;10330031;28;20048;-67
2023/11/11 07:35:44;;;;;;;0.68;0.20;;;;;;;9.11;73.57;99165.94;10325670;28;20057;-66
2023/11/11 07:40:45;;;;;;;0.30;0.10;;;;;;;9.12;73.26;99172.97;10310751;28;20047;-64
2023/11/11 07:45:48;;;;;;;0.30;0.10;;;;;;;9.17;72.74;99177.72;10340818;28;20059;-63
2023/11/11 07:50:49;;;;;;;3.30;0.30;;;;;;;9.15;72.30;99187.00;10338253;28;20121;-63
2023/11/11 07:55:51;;;;;;;0.20;0.10;;;;;;;9.17;71.45;99195.69;10337452;28;20046;-63
2023/11/11 08:00:52;;;;;;;0.52;0.20;;;;;;;9.13;70.79;99219.34;10341359;28;20050;-65
2023/11/11 08:05:54;;;;;;;0.47;0.20;;;;;;;9.19;69.48;99207.03;10331121;28;20081;-65
2023/11/11 08:10:56;;;;;;;4.63;0.43;;;;;;;9.25;69.20;99198.19;10334008;28;20106;-64
2023/11/11 08:15:57;;;;;;;1.17;0.20;;;;;;;9.32;68.35;99196.38;10339330;28;20043;-64
2023/11/11 08:20:59;;;;;;;1.67;0.30;;;;;;;9.33;67.67;99206.91;10330186;28;20042;-64
2023/11/11 08:26:00;;;;;;;1.45;0.40;;;;;;;9.29;67.46;99204.81;10294592;28;20370;-64
2023/11/11 08:31:02;;;;;;;2.40;0.30;;;;;;;9.27;67.16;99229.16;10338947;28;20409;-64
2023/11/11 08:36:05;;;;;;;1.15;0.43;;;;;;;9.26;67.22;99232.88;10334151;28;20084;-65
2023/11/11 08:41:08;;;;;;;2.55;0.30;;;;;;;9.27;67.48;99247.09;10329034;28;20050;-64
2023/11/11 08:46:10;;;;;;;0.80;0.50;;;;;;;9.33;67.88;99257.88;10330705;28;20042;-64
2023/11/11 08:51:12;;;;;;;2.10;0.28;;;;;;;9.38;67.92;99259.13;10339311;28;20046;-64
2023/11/11 08:56:13;;;;;;;0.82;0.30;;;;;;;9.44;68.16;99269.06;10354122;28;20046;-63
2023/11/11 09:01:16;;;;;;;1.02;0.47;;;;;;;9.50;67.75;99268.31;10345019;28;20397;-63
2023/11/11 09:06:17;;;;;;;3.00;0.20;;;;;;;9.58;67.65;99272.69;10349532;28;20195;-64
2023/11/11 09:11:19;;;;;;;0.40;0.30;;;;;;;9.74;67.65;99269.72;10343932;28;20054;-64
2023/11/11 09:16:20;;;;;;;1.13;0.30;;;;;;;9.83;66.61;99279.25;10345966;28;20068;-63
2023/11/11 09:21:22;;;;;;;1.80;0.30;;;;;;;9.90;65.91;99281.97;10339539;28;20081;-64
2023/11/11 09:26:24;;;;;;;1.23;0.35;;;;;;;9.88;65.25;99278.66;10345506;28;20038;-63
2023/11/11 09:31:29;;;;;;;2.10;0.38;;;;;;;9.95;65.24;99290.25;10350714;28;20049;-64
2023/11/11 09:36:30;;;;;;;2.33;0.47;;;;;;;10.07;64.91;99295.88;10346938;28;20045;-64
2023/11/11 09:41:32;;;;;;;4.78;0.60;;;;;;;10.12;64.46;99305.00;10342694;28;20125;-64
2023/11/11 09:46:42;;;;;;;2.72;0.40;;;;;;;10.19;64.13;99307.75;10339029;28;20053;-63
2023/11/11 09:51:44;;;;;;;2.95;0.40;;;;;;;10.28;63.90;99321.81;10334462;28;20137;-64
2023/11/11 09:56:47;;;;;;;2.70;0.50;;;;;;;10.32;63.84;99320.41;10332521;28;20054;-64
2023/11/11 10:01:52;;;;;;;3.08;0.60;;;;;;;10.51;63.74;99324.22;10336576;28;20045;-64
2023/11/11 10:06:56;;;;;;;1.33;0.47;;;;;;;10.66;63.88;99322.22;10333052;28;20104;-63
2023/11/11 10:11:59;;;;;;;1.77;0.60;;;;;;;10.68;63.29;99330.06;10329414;28;20405;-63
2023/11/11 10:17:03;;;;;;;3.15;0.60;;;;;;;10.77;62.96;99330.72;10334078;28;20067;-63
2023/11/11 10:22:07;;;;;;;1.33;0.80;;;;;;;10.81;62.75;99331.97;10342223;28;20034;-63
2023/11/11 10:27:09;;;;;;;1.70;0.30;;;;;;;10.88;62.10;99330.97;10334120;28;20047;-63
2023/11/11 10:32:11;;;;;;;1.52;0.40;;;;;;;10.94;61.80;99325.78;10334976;28;20054;-64
2023/11/11 10:37:12;;;;;;;1.65;0.60;;;;;;;10.96;61.25;99337.16;10337079;28;20137;-63
2023/11/11 10:42:17;;;;;;;2.83;1.25;;;;;;;10.87;60.57;99336.53;10323611;28;20046;-63
2023/11/11 10:47:18;;;;;;;1.80;0.50;;;;;;;10.84;60.65;99331.56;10342032;28;20521;-63
2023/11/11 10:52:22;;;;;;;1.13;0.40;;;;;;;10.85;59.84;99327.84;10341253;28;20042;-64
2023/11/11 10:57:23;;;;;;;1.85;0.35;;;;;;;10.98;59.13;99327.88;10342278;28;20526;-64
2023/11/11 11:02:26;;;;;;;1.52;0.40;;;;;;;11.15;59.33;99330.19;10345708;28;20519;-64
2023/11/11 11:07:35;;;;;;;0.88;0.40;;;;;;;11.07;59.15;99334.72;10351967;28;20041;-64
2023/11/11 11:12:53;;;;;;;1.45;0.43;;;;;;;11.22;58.49;99344.47;10337218;28;20046;-65
2023/11/11 11:17:55;;;;;;;;;;;;;;;11.18;59.03;99335.97;10318818;28;20042;-66
2023/11/11 11:23:00;;;;;;;1.77;0.38;;;;;;;11.10;58.25;99347.75;10292186;28;19926;-67
2023/11/11 11:28:29;;;;;;;0.85;0.40;;;;;;;11.15;58.30;99351.69;10305635;28;20104;-65
2023/11/11 11:33:32;;;;;;;1.95;0.40;;;;;;;11.31;57.51;99348.59;10333698;28;20564;-65
2023/11/11 11:38:39;;;;;;;2.60;0.38;;;;;;;11.22;57.27;99347.16;10306106;28;20116;-66
2023/11/11 11:43:41;;;;;;;1.03;0.30;;;;;;;11.24;57.14;99350.47;10280494;28;20057;-67
2023/11/11 11:48:44;;;;;;;4.30;1.20;;;;;;;11.15;56.94;99362.47;10277767;28;20040;-67
2023/11/11 11:53:48;;;;;;;2.35;0.40;;;;;;;11.10;56.00;99365.78;10294820;28;20050;-66
2023/11/11 11:58:50;;;;;;;2.08;1.10;;;;;;;11.06;55.41;99362.66;10297892;28;20127;-66
2023/11/11 12:03:53;;;;;;;1.92;0.40;;;;;;;11.16;56.02;99367.63;10301074;28;20401;-66
2023/11/11 12:09:00;;;;;;;2.30;0.30;;;;;;;11.29;55.72;99364.13;10294889;28;20125;-65
2023/11/11 12:14:13;;;;;;;1.02;0.60;;;;;;;11.32;56.23;99351.09;10307296;28;20133;-66
2023/11/11 12:19:17;;;;;;;1.50;0.50;;;;;;;11.48;55.28;99347.16;10313127;28;20027;-64
2023/11/11 12:24:25;;;;;;;7.80;1.35;;;;;;;11.66;55.49;99353.81;10346101;28;20042;-64
2023/11/11 12:29:28;;;;;;;2.22;0.30;;;;;;;11.93;55.11;99353.78;10375536;28;20061;-64
2023/11/11 12:34:29;;;;;;;2.83;0.50;;;;;;;11.98;55.20;99352.13;10371946;28;20061;-64
2023/11/11 12:39:32;;;;;;;0.45;0.20;;;;;;;12.00;55.27;99363.53;10355133;28;20413;-64
2023/11/11 12:44:38;;;;;;;2.55;0.32;;;;;;;11.73;55.47;99361.88;10367205;28;20070;-64
2023/11/11 12:49:50;;;;;;;1.75;0.20;;;;;;;11.66;55.00;99365.38;10361187;28;20114;-64
2023/11/11 12:54:51;;;;;;;4.38;0.40;;;;;;;11.67;55.29;99367.06;10340451;28;20046;-64
2023/11/11 12:59:55;;;;;;;0.75;0.50;;;;;;;11.64;54.87;99370.16;10357467;28;20058;-64
2023/11/11 13:04:56;;;;;;;2.17;0.35;;;;;;;11.68;55.28;99371.41;10359148;28;20056;-64
2023/11/11 13:09:58;;;;;;;1.23;0.40;;;;;;;11.76;54.80;99369.53;10359785;28;20034;-64
2023/11/11 13:15:01;;;;;;;0.50;0.30;;;;;;;11.80;54.53;99373.47;10356675;28;20133;-64
2023/11/11 13:20:04;;;;;;;1.85;0.47;;;;;;;11.80;54.71;99373.47;10355005;28;20401;-64
2023/11/11 13:25:09;;;;;;;2.28;0.30;;;;;;;11.80;54.18;99370.78;10350506;28;20092;-64
2023/11/11 13:30:11;;;;;;;1.00;0.30;;;;;;;11.64;53.98;99370.16;10346973;28;20145;-66
2023/11/11 13:35:15;;;;;;;2.17;0.60;;;;;;;11.45;54.32;99370.97;10323377;28;20054;-66
2023/11/11 13:40:39;;;;;;;0.95;0.40;;;;;;;11.40;54.76;99371.59;10324739;28;20080;-66
2023/11/11 13:45:42;;;;;;;1.60;0.50;;;;;;;11.31;54.50;99372.81;10332034;28;20600;-66
2023/11/11 13:50:44;;;;;;;1.65;0.52;;;;;;;11.16;54.49;99373.03;10333801;28;20753;-66
2023/11/11 13:55:46;;;;;;;4.68;0.30;;;;;;;11.24;54.84;99374.69;10326690;28;20596;-66
2023/11/11 14:00:48;;;;;;;2.75;0.30;;;;;;;11.36;54.80;99374.91;10305405;28;20042;-66
2023/11/11 14:05:49;;;;;;;2.55;0.30;;;;;;;11.37;55.42;99376.56;10326497;28;20038;-65
2023/11/11 14:10:51;;;;;;;2.30;0.45;;;;;;;11.40;55.35;99379.66;10317238;28;20275;-66
2023/11/11 14:15:52;;;;;;;0.52;0.20;;;;;;;11.51;55.29;99371.00;10337129;28;20046;-66
2023/11/11 14:21:00;;;;;;;2.83;0.52;;;;;;;11.43;55.22;99376.59;10275092;28;20070;-67
2023/11/11 14:26:03;;;;;;;;;;;;;;;11.26;55.79;99364.56;10292589;28;20057;-67
2023/11/11 14:31:05;;;;;;;1.10;0.30;;;;;;;11.20;55.76;99376.94;10275014;28;19922;-66
2023/11/11 14:36:07;;;;;;;4.32;0.40;;;;;;;11.06;55.96;99380.66;10279627;28;20676;-66
2023/11/11 14:41:09;;;;;;;1.25;0.20;;;;;;;10.97;56.16;99371.09;10296928;28;20118;-64
2023/11/11 14:46:11;;;;;;;4.38;0.30;;;;;;;10.86;56.03;99375.19;10302821;28;20049;-64
2023/11/11 14:51:13;;;;;;;0.38;0.20;;;;;;;10.79;56.26;99391.31;10309033;28;20054;-64
2023/11/11 14:56:15;;;;;;;0.98;0.20;;;;;;;10.74;55.86;99395.63;10330463;28;20050;-64
2023/11/11 15:01:16;;;;;;;2.10;0.30;;;;;;;10.71;56.17;99404.94;10310663;28;20049;-64
2023/11/11 15:06:19;;;;;;;2.35;0.40;;;;;;;10.67;56.42;99404.50;10329091;28;20052;-63
2023/11/11 15:11:21;;;;;;;1.15;0.20;;;;;;;10.73;56.26;99420.88;10358873;28;20114;-64
2023/11/11 15:16:22;;;;;;;1.73;0.20;;;;;;;10.78;55.87;99421.06;10350724;28;20489;-64
2023/11/11 15:21:27;;;;;;;2.15;0.40;;;;;;;10.85;56.17;99427.31;10347201;28;20061;-64
2023/11/11 15:26:29;;;;;;;3.85;1.13;;;;;;;10.95;56.42;99425.09;10356215;28;20046;-63
2023/11/11 15:31:30;;;;;;;5.10;0.50;;;;;;;11.02;56.34;99443.91;10355424;28;20473;-65
2023/11/11 15:36:32;;;;;;;5.38;0.63;;;;;;;10.91;57.45;99456.09;10355785;28;20529;-64
2023/11/11 15:41:33;;;;;;;1.40;0.43;;;;;;;10.39;58.63;99462.84;10334155;28;20054;-63
2023/11/11 15:46:35;;;;;;;1.13;0.30;;;;;;;10.23;59.30;99462.09;10344134;28;20419;-64
2023/11/11 15:51:38;;;;;;;0.95;0.20;;;;;;;10.20;59.35;99462.47;10346518;28;20076;-61
2023/11/11 15:56:39;;;;;;;3.20;1.00;;;;;;;10.21;59.55;99471.34;10344873;28;20078;-61
2023/11/11 16:01:41;;;;;;;0.63;0.30;;;;;;;10.17;59.29;99478.13;10343989;28;20386;-66
2023/11/11 16:06:43;;;;;;;1.67;0.55;;;;;;;10.08;59.93;99480.97;10338103;28;20042;-61
2023/11/11 16:11:44;;;;;;;1.35;0.40;;;;;;;9.97;60.06;99494.91;10339087;28;20047;-61
2023/11/11 16:16:46;;;;;;;0.85;0.30;;;;;;;9.75;60.36;99491.41;10338582;28;20050;-61
2023/11/11 16:21:48;;;;;;;1.83;0.30;;;;;;;9.72;60.70;99484.59;10336772;28;20046;-61
2023/11/11 16:26:50;;;;;;;0.43;0.30;;;;;;;9.60;61.15;99499.53;10333169;28;20570;-61
2023/11/11 16:31:51;;;;;;;1.05;0.47;;;;;;;9.45;61.26;99507.63;10334940;28;20054;-61
2023/11/11 16:36:53;;;;;;;2.15;0.30;;;;;;;9.35;61.55;99515.16;10320813;28;20053;-60
2023/11/11 16:41:55;;;;;;;1.75;0.50;;;;;;;9.26;62.00;99519.81;10327980;28;20110;-60
2023/11/11 16:47:03;;;;;;;0.63;0.30;;;;;;;9.17;62.21;99512.88;10332602;28;20057;-60
2023/11/11 16:52:05;;;;;;;;;;;;;;;9.16;61.89;99523.78;10327897;28;20591;-61
2023/11/11 16:57:07;;;;;;;1.63;0.52;;;;;;;9.13;62.02;99522.31;10330664;28;20341;-60
2023/11/11 17:02:09;;;;;;;0.65;0.40;;;;;;;9.06;62.25;99535.66;10337874;28;20042;-61
2023/11/11 17:07:11;;;;;;;0.63;0.50;;;;;;;9.04;62.48;99539.50;10328986;28;20108;-61
2023/11/11 17:12:27;;;;;;;1.92;0.40;;;;;;;8.95;62.84;99537.97;10336802;28;20046;-61
2023/11/11 17:17:28;;;;;;;0.63;0.40;;;;;;;8.89;62.95;99544.91;10340705;28;20053;-61
2023/11/11 17:22:30;;;;;;;1.38;0.30;;;;;;;8.88;63.19;99554.75;10334499;28;20049;-61
2023/11/11 17:27:31;;;;;;;1.00;0.38;;;;;;;8.90;63.33;99552.72;10335411;28;20094;-61
2023/11/11 17:32:35;;;;;;;0.80;0.30;;;;;;;8.87;63.55;99536.22;10338559;28;20066;-61
2023/11/11 17:37:37;;;;;;;0.70;0.30;;;;;;;8.77;63.89;99549.88;10336576;28;20042;-61
2023/11/11 17:42:39;;;;;;;4.03;1.00;;;;;;;8.75;64.03;99543.88;10339689;28;20081;-60
2023/11/11 17:47:41;;;;;;;1.65;0.43;;;;;;;8.75;64.42;99554.59;10332403;28;20041;-60
2023/11/11 17:52:42;;;;;;;2.40;0.63;;;;;;;8.84;64.18;99550.78;10338204;28;20054;-61
2023/11/11 17:57:44;;;;;;;2.47;0.75;;;;;;;8.93;63.97;99552.38;10337457;28;20450;-61
2023/11/11 18:02:46;;;;;;;1.90;0.80;;;;;;;8.93;64.44;99555.03;10341828;28;20137;-61
2023/11/11 18:07:47;;;;;;;2.35;0.50;;;;;;;8.88;64.32;99560.13;10339060;28;20046;-61
2023/11/11 18:12:49;;;;;;;2.45;0.63;;;;;;;9.02;64.29;99555.78;10321139;28;20070;-61
2023/11/11 18:17:50;;;;;;;1.73;0.50;;;;;;;9.07;64.21;99557.91;10329216;28;20038;-61
2023/11/11 18:22:52;;;;;;;1.35;0.60;;;;;;;9.07;64.48;99548.00;10329383;28;20046;-61
2023/11/11 18:27:53;;;;;;;2.08;0.50;;;;;;;9.24;64.32;99558.53;10322817;28;20446;-61
2023/11/11 18:32:56;;;;;;;1.05;0.52;;;;;;;9.42;64.04;99569.72;10301023;28;20042;-61
2023/11/11 18:37:57;;;;;;;0.98;0.60;;;;;;;9.50;63.79;99569.59;10308401;28;20046;-62
2023/11/11 18:43:00;;;;;;;3.10;0.60;;;;;;;9.55;64.36;99573.56;10320060;28;20062;-61
2023/11/11 18:48:02;;;;;;;3.85;0.70;;;;;;;9.57;64.10;99572.34;10304632;28;20062;-61
2023/11/11 18:53:04;;;;;;;2.38;0.73;;;;;;;9.64;64.46;99575.13;10322272;28;20102;-61
2023/11/11 18:58:06;;;;;;;1.58;0.70;;;;;;;9.68;64.20;99577.22;10314199;28;20085;-61
2023/11/11 19:03:08;;;;;;;3.13;0.98;;;;;;;9.69;64.41;99583.41;10333529;28;20046;-61
2023/11/11 19:08:10;;;;;;;1.58;1.00;;;;;;;9.70;64.35;99577.06;10331135;28;20058;-61
2023/11/11 19:13:12;;;;;;;4.20;1.90;;;;;;;9.65;64.77;99577.59;10312175;28;20050;-61
2023/11/11 19:18:13;;;;;;;3.55;1.60;;;;;;;9.68;64.66;99581.78;10328175;28;20127;-61
2023/11/11 19:23:15;;;;;;;2.53;1.08;;;;;;;9.63;65.01;99581.50;10326442;28;20420;-61
2023/11/11 19:28:16;;;;;;;6.22;1.30;;;;;;;9.55;65.42;99584.28;10325803;28;20043;-59
2023/11/11 19:33:18;;;;;;;4.57;1.77;;;;;;;9.44;65.41;99582.91;10329444;28;20058;-59
2023/11/11 19:38:19;;;;;;;3.33;1.88;;;;;;;9.37;65.47;99590.06;10328576;28;20694;-60
2023/11/11 19:43:21;;;;;;;4.82;1.40;;;;;;;9.40;65.71;99600.41;10326706;28;20066;-59
2023/11/11 19:48:23;;;;;;;6.18;1.80;;;;;;;9.37;65.80;99606.16;10328834;28;20049;-60
2023/11/11 19:53:25;;;;;;;4.07;1.77;;;;;;;9.46;65.86;99599.69;10330598;28;20061;-60
2023/11/11 19:58:26;;;;;;;4.25;1.88;;;;;;;9.45;66.01;99604.19;10326529;28;20485;-60
2023/11/11 20:03:28;;;;;;;3.25;1.70;;;;;;;9.51;65.67;99605.31;10326642;28;20050;-60
2023/11/11 20:08:29;;;;;;;7.43;2.72;;;;;;;9.53;65.81;99601.41;10338102;28;20055;-60
2023/11/11 20:13:31;;;;;;;2.67;1.88;;;;;;;9.38;66.23;99602.44;10296282;28;20146;-59
2023/11/11 20:18:32;;;;;;;3.72;1.63;;;;;;;9.21;66.78;99597.28;10323931;28;20054;-60
2023/11/11 20:23:34;;;;;;;4.00;1.20;;;;;;;9.09;67.01;99598.78;10327474;28;20046;-60
2023/11/11 20:28:35;;;;;;;7.18;1.58;;;;;;;8.98;67.18;99591.19;10320140;28;20061;-59
2023/11/11 20:33:37;;;;;;;5.43;1.38;;;;;;;8.98;67.00;99599.22;10322849;28;20085;-61
2023/11/11 20:38:38;;;;;;;4.22;1.90;;;;;;;8.96;66.81;99594.03;10322130;28;20057;-60
2023/11/11 20:43:40;;;;;;;4.57;1.63;;;;;;;8.89;67.09;99591.28;10328925;28;20039;-60
2023/11/11 20:48:41;;;;;;;12.02;2.17;;;;;;;8.74;67.29;99582.38;10308510;28;20058;-61
2023/11/11 20:53:43;;;;;;;5.28;1.77;;;;;;;8.64;67.21;99589.84;10329255;28;20053;-60
2023/11/11 20:58:44;;;;;;;5.57;2.05;;;;;;;8.58;67.19;99591.41;10319440;28;20500;-60
2023/11/11 21:03:45;;;;;;;7.10;1.90;;;;;;;8.45;67.58;99585.84;10328857;28;20042;-60
2023/11/11 21:08:49;;;;;;;5.03;1.73;;;;;;;8.37;67.72;99585.88;10324642;28;20101;-61
2023/11/11 21:13:50;;;;;;;5.75;2.38;;;;;;;8.34;67.55;99574.53;10318632;28;20051;-60
2023/11/11 21:18:52;;;;;;;3.13;1.77;;;;;;;8.21;67.80;99571.63;10320734;28;20049;-60
2023/11/11 21:23:53;;;;;;;7.53;1.90;;;;;;;8.15;67.79;99575.00;10322447;28;20043;-60
2023/11/11 21:28:55;;;;;;;7.38;2.10;;;;;;;8.11;67.45;99571.84;10323249;28;20038;-60
2023/11/11 21:33:56;;;;;;;3.38;1.90;;;;;;;8.07;67.74;99580.44;10326591;28;20050;-60
2023/11/11 21:38:57;;;;;;;5.95;2.08;;;;;;;7.92;67.92;99569.69;10321816;28;20046;-60
2023/11/11 21:43:59;;;;;;;3.92;1.70;;;;;;;7.84;68.02;99567.91;10327681;28;20064;-60
2023/11/11 21:49:01;;;;;;;3.55;2.00;;;;;;;7.76;68.46;99570.63;10326328;28;20126;-60
2023/11/11 21:54:02;;;;;;;12.45;1.85;;;;;;;7.71;68.64;99573.81;10322939;28;20134;-60
2023/11/11 21:59:04;;;;;;;3.00;1.88;;;;;;;7.67;68.31;99580.53;10316558;28;20046;-60
2023/11/11 22:04:05;;;;;;;5.88;1.88;;;;;;;7.71;68.23;99571.13;10322193;28;20046;-60
2023/11/11 22:09:07;;;;;;;5.63;1.70;;;;;;;7.70;68.27;99564.13;10323176;28;20050;-60
2023/11/11 22:14:09;;;;;;;3.15;1.55;;;;;;;7.74;68.33;99561.91;10323887;28;20057;-61
2023/11/11 22:19:10;;;;;;;2.78;1.60;;;;;;;7.78;68.96;99567.75;10325010;28;20519;-61
2023/11/11 22:24:12;;;;;;;3.72;1.30;;;;;;;7.83;68.46;99573.41;10328856;28;20050;-61
2023/11/11 22:29:13;;;;;;;6.78;2.17;;;;;;;7.85;68.53;99566.88;10322921;28;20065;-59
2023/11/11 22:34:16;;;;;;;3.88;1.75;;;;;;;7.87;68.73;99564.03;10310783;28;20051;-60
2023/11/11 22:39:18;;;;;;;1.95;1.48;;;;;;;7.90;68.30;99558.31;10329531;28;20494;-60
2023/11/11 22:44:19;;;;;;;8.13;1.75;;;;;;;7.83;68.99;99563.53;10326369;28;20042;-60
2023/11/11 22:49:21;;;;;;;4.10;1.63;;;;;;;7.80;69.23;99561.25;10334276;28;20507;-60
2023/11/11 22:54:24;;;;;;;6.32;1.35;;;;;;;7.79;69.06;99558.72;10316713;28;20051;-60
2023/11/11 22:59:25;;;;;;;5.32;2.10;;;;;;;7.85;69.19;99563.38;10327763;28;20057;-60
2023/11/11 23:04:27;;;;;;;3.05;1.35;;;;;;;7.85;69.39;99550.00;10326505;28;20384;-60
2023/11/11 23:09:28;;;;;;;4.90;1.92;;;;;;;7.87;69.09;99561.34;10330499;28;20046;-60
2023/11/11 23:14:31;;;;;;;5.55;1.83;;;;;;;7.99;69.14;99549.22;10331079;28;20046;-60
2023/11/11 23:19:34;;;;;;;4.18;1.83;;;;;;;8.04;68.97;99557.53;10330324;28;20041;-60
2023/11/11 23:24:35;;;;;;;6.75;1.85;;;;;;;8.01;69.53;99549.84;10325229;28;20596;-60
2023/11/11 23:29:39;;;;;;;6.70;2.17;;;;;;;8.02;69.39;99548.88;10328565;28;20030;-60
2023/11/11 23:34:40;;;;;;;6.97;2.08;;;;;;;7.97;69.22;99540.53;10325731;28;20068;-60
2023/11/11 23:39:42;;;;;;;6.00;2.15;;;;;;;8.02;69.44;99540.84;10328941;28;20073;-60